Francisco De Orellana Airport
SECO : now visible

Airfield :











YOU CAN JOIN US ON...

 
LOGIN :

Register | Disclaimer

   EN    FR    IT 

 









Legend :    VFR   Marginal VFR   IFR   Intensive IFR   Very Intensive IFR
Visi :
Ceiling :
>= 8 km
>= 3000ft
5 to 8 km
1000 to 3000 ft
1500m to 5 km
500 to 1000 ft
800 to 1500m
200 to 500 ft
< 800m
< 200 ft
Symbols :   Thunderstorms  Fog  Heavy snow  Heavy precipitations  Wind > 20 kt






- Airport Elevation : 834 ft
- IATA code : OCC


SECO - Francisco De Orellana

CURRENT METAR :
  • 191600Z 18003KT 9999 BKN020 BKN100 26/23 Q1015 RMK A2998

EXPIRED METARs :
  • 191500Z 21002KT 9999 BKN016 OVC100 25/23 Q1016 RMK A3000
  • 191400Z 20003KT 9999 BKN016 BKN100 24/23 Q1015 RMK A3000

TAF N/A



MET'MAP, your aeronautical weather chart ! - Copyright ORBIFLY December 2007 - Disclaimer

ORBIFLY MET'MAP TEAM :

Programming & Development : Alexandra Zaïnal
Concept & original design : Baudouin d'Aumeries
Assistance for programming : Marc-Olivier Méhu
Technical & hardware support : Manuel Goepfert

Contact : metmap@orbifly.com




SOURCES & CREDITS :

   NOAA       Earth
Advisory